KHOT/HOT METAR and TAF weather

Enter ICAO airport designator
Station Type Date Time Source
KHOT METAR 2022/11/30 23:53 UTC NOAA

KHOT 302353Z AUTO 00000KT 10SM CLR 07/M07 A3042 RMK AO2 SLP302 T00671067 10117 20061 53008


Station Type Date Time Source
KHOT Decoded METAR 2022/11/30 23:53 UTC NOAA

HOT SPRINGS MEMORIAL FIELD, AR, United States (KHOT) 34-29N 093-06W 162M
Nov 30, 2022 - 06:53 PM EST / 2022.11.30 2353 UTC
Wind: Calm:0
Visibility: 10 mile(s):0
Sky conditions: clear
Temperature: 44.1 F (6.7 C)
Dew Point: 19.9 F (-6.7 C)
Relative Humidity: 37%
Pressure (altimeter): 30.42 in. Hg (1030 hPa)
Pressure tendency: 0.02 inches (0.8 hPa) higher than three hours ago
ob: KHOT 302353Z AUTO 00000KT 10SM CLR 07/M07 A3042 RMK AO2 SLP302 T00671067 10117 20061 53008
cycle: 0

Station Type Date Time Source
KHOT TAF 2022/11/30 18:22 UTC NOAA

TAF KHOT 301720Z 3018/0118 02010KT P6SM SKC
FM010200 VRB05KT P6SM SKC
FM011500 10006KT P6SM SCT250

Example: see airport list